Time;durP1;ratioP1;P1;durP2;ratioP2;P2;SDS_P1;SDS_P2;PMS_P1;PMS_P2;Temp;Humidity;BMP_temperature;BMP_pressure;BME280_temperature;BME280_humidity;BME280_pressure;Samples;Min_cycle;Max_cycle;Signal;HPM_P1;HPM_P2
2023/09/13 00:00:50;;;;;;;20.40;18.30;;;;;;;17.00;83.26;100232.33;108984;278;38958;-76
2023/09/13 00:03:42;;;;;;;23.10;20.60;;;;;;;17.00;83.31;100232.88;108970;278;38159;-75
2023/09/13 00:06:30;;;;;;;24.70;20.10;;;;;;;16.99;83.42;100228.88;108977;278;38510;-73
2023/09/13 00:09:14;;;;;;;23.10;19.80;;;;;;;16.96;83.32;100225.88;108939;278;39227;-75
2023/09/13 00:11:51;;;;;;;22.90;19.00;;;;;;;16.96;83.54;100223.80;109023;278;38481;-77
2023/09/13 00:14:25;;;;;;;21.80;18.50;;;;;;;16.95;83.66;100222.44;108925;279;39422;-75
2023/09/13 00:17:02;;;;;;;23.30;20.00;;;;;;;16.95;83.71;100221.58;108988;278;38577;-74
2023/09/13 00:19:40;;;;;;;23.80;21.20;;;;;;;16.94;83.96;100218.79;108884;278;38530;-74
2023/09/13 00:22:22;;;;;;;23.40;20.60;;;;;;;16.92;83.91;100212.77;108813;278;174958;-75
2023/09/13 00:24:56;;;;;;;25.70;19.90;;;;;;;16.91;84.04;100208.09;108910;278;39439;-76
2023/09/13 00:27:32;;;;;;;21.20;18.90;;;;;;;16.91;84.08;100208.79;108923;278;38347;-75
2023/09/13 00:30:14;;;;;;;21.20;19.00;;;;;;;16.91;84.22;100207.73;108934;278;38282;-76
2023/09/13 00:32:48;;;;;;;24.80;21.40;;;;;;;16.90;84.41;100206.89;108809;279;174580;-82
2023/09/13 00:35:22;;;;;;;24.10;21.60;;;;;;;16.89;84.30;100206.61;108918;278;38609;-76
2023/09/13 00:38:00;;;;;;;27.40;21.50;;;;;;;16.87;84.10;100206.39;108985;278;38334;-74
2023/09/13 00:43:25;;;;;;;22.60;20.30;;;;;;;16.84;84.38;100207.84;109098;277;38443;-76
2023/09/13 00:46:03;;;;;;;24.70;20.30;;;;;;;16.85;84.71;100207.80;109000;277;38420;-74
2023/09/13 00:48:37;;;;;;;24.00;21.40;;;;;;;16.85;84.70;100207.44;108947;278;38456;-73
2023/09/13 00:51:15;;;;;;;25.80;21.60;;;;;;;16.84;84.61;100206.10;108946;278;38626;-72
2023/09/13 00:53:53;;;;;;;25.80;21.40;;;;;;;16.83;84.67;100202.85;108922;278;38726;-74
2023/09/13 00:56:31;;;;;;;25.20;21.50;;;;;;;16.82;84.62;100201.88;108897;278;38516;-75
2023/09/13 00:59:09;;;;;;;23.30;20.80;;;;;;;16.80;85.02;100201.25;108841;279;38434;-77
2023/09/13 01:01:46;;;;;;;24.90;20.40;;;;;;;16.80;85.00;100202.16;108919;278;38595;-74
2023/09/13 01:04:26;;;;;;;24.90;20.90;;;;;;;16.80;85.24;100201.28;108869;279;38804;-74
2023/09/13 01:07:02;;;;;;;24.30;21.70;;;;;;;16.79;84.87;100206.80;108919;278;38144;-75
2023/09/13 01:09:36;;;;;;;23.50;20.60;;;;;;;16.76;85.08;100202.73;108887;278;39168;-74
2023/09/13 01:12:13;;;;;;;23.40;20.30;;;;;;;16.75;85.10;100203.70;108923;278;38167;-77
2023/09/13 01:14:50;;;;;;;24.00;20.40;;;;;;;16.73;84.90;100204.89;108937;278;38785;-76
2023/09/13 01:17:29;;;;;;;23.50;20.20;;;;;;;16.71;85.04;100209.21;108936;278;38191;-75
2023/09/13 01:20:11;;;;;;;23.70;21.00;;;;;;;16.69;84.81;100206.02;108822;279;41523;-79
2023/09/13 01:23:12;;;;;;;23.90;21.30;;;;;;;16.65;84.87;100208.90;108929;278;39308;-72
2023/09/13 01:26:02;;;;;;;21.80;19.50;;;;;;;16.61;84.63;100207.95;108841;279;40376;-76
2023/09/13 01:28:42;;;;;;;21.80;19.00;;;;;;;16.60;84.78;100205.73;108955;278;40228;-76
2023/09/13 01:31:18;;;;;;;22.20;19.60;;;;;;;16.59;84.67;100208.44;108977;278;38300;-76
2023/09/13 01:34:02;;;;;;;24.20;21.50;;;;;;;16.57;84.71;100205.75;109000;278;39377;-76
2023/09/13 01:36:37;;;;;;;24.10;19.60;;;;;;;16.53;84.53;100210.21;108973;278;39369;-76
2023/09/13 01:39:21;;;;;;;22.20;19.90;;;;;;;16.47;84.69;100213.21;108348;278;897535;-75
2023/09/13 01:42:02;;;;;;;20.90;18.60;;;;;;;16.46;84.89;100214.88;108916;278;39407;-74
2023/09/13 01:44:53;;;;;;;22.10;19.90;;;;;;;16.43;84.47;100213.15;108952;278;39355;-78
2023/09/13 01:47:46;;;;;;;22.30;20.10;;;;;;;16.37;84.51;100209.85;108917;278;38475;-75
2023/09/13 01:50:34;;;;;;;23.20;20.20;;;;;;;16.33;84.74;100209.09;108907;278;38639;-75
2023/09/13 01:53:17;;;;;;;21.10;18.60;;;;;;;16.30;84.80;100209.06;108853;278;38350;-78
2023/09/13 01:55:54;;;;;;;22.50;19.60;;;;;;;16.30;84.87;100210.31;108922;278;38613;-76
2023/09/13 01:58:52;;;;;;;23.10;20.10;;;;;;;16.28;84.96;100209.22;108933;278;38267;-74
2023/09/13 02:01:41;;;;;;;24.60;20.80;;;;;;;16.25;85.05;100207.80;108911;279;39373;-74
2023/09/13 02:04:16;;;;;;;25.10;20.10;;;;;;;16.22;85.33;100208.86;108849;278;38345;-73
2023/09/13 02:06:50;;;;;;;22.60;20.10;;;;;;;16.19;85.29;100212.23;108907;278;38566;-73
2023/09/13 02:09:27;;;;;;;21.70;19.10;;;;;;;16.17;85.10;100210.28;108937;278;38471;-74
2023/09/13 02:12:03;;;;;;;22.00;19.70;;;;;;;16.15;85.32;100208.76;108878;279;38230;-74
2023/09/13 02:14:37;;;;;;;22.40;20.00;;;;;;;16.14;85.43;100207.63;108906;278;39571;-76
2023/09/13 02:17:15;;;;;;;24.20;21.70;;;;;;;16.13;85.61;100205.57;108999;278;38736;-74
2023/09/13 02:19:55;;;;;;;23.20;20.60;;;;;;;16.12;85.62;100207.93;108994;278;39236;-73
2023/09/13 02:22:29;;;;;;;24.10;20.50;;;;;;;16.11;85.79;100204.66;108920;278;175004;-75
2023/09/13 02:25:08;;;;;;;22.20;19.60;;;;;;;16.10;85.89;100208.59;108968;278;39339;-74
2023/09/13 02:27:46;;;;;;;22.50;20.20;;;;;;;16.09;85.81;100205.66;108923;278;38428;-76
2023/09/13 02:30:24;;;;;;;23.50;21.10;;;;;;;16.08;85.79;100208.21;108955;278;38199;-75
2023/09/13 02:33:00;;;;;;;25.00;21.90;;;;;;;16.07;86.03;100206.13;108942;279;39643;-73
2023/09/13 02:35:39;;;;;;;25.00;21.80;;;;;;;16.05;85.85;100204.20;108893;279;38188;-74
2023/09/13 02:38:15;;;;;;;23.10;20.60;;;;;;;16.00;85.66;100200.42;108926;278;38170;-74
2023/09/13 02:40:50;;;;;;;22.70;20.30;;;;;;;15.97;85.80;100207.31;108796;278;175067;-74
2023/09/13 02:43:26;;;;;;;24.10;21.00;;;;;;;15.95;85.79;100204.30;108903;278;39563;-73
2023/09/13 02:46:02;;;;;;;30.60;22.20;;;;;;;15.93;85.93;100207.19;108952;278;38501;-74
2023/09/13 02:48:39;;;;;;;25.10;22.40;;;;;;;15.92;86.12;100203.40;108886;278;39412;-75
2023/09/13 02:51:25;;;;;;;25.80;21.90;;;;;;;15.90;86.43;100203.51;108863;278;39094;-73
2023/09/13 02:53:59;;;;;;;24.10;21.60;;;;;;;15.88;86.29;100198.89;108927;279;38325;-73
2023/09/13 02:56:33;;;;;;;22.90;20.40;;;;;;;15.88;86.56;100204.52;108903;278;39325;-73
2023/09/13 02:59:11;;;;;;;28.50;22.30;;;;;;;15.89;87.00;100200.56;108893;278;39267;-74
2023/09/13 03:01:48;;;;;;;26.20;23.40;;;;;;;15.90;87.06;100204.56;108885;278;175053;-73
2023/09/13 03:04:24;;;;;;;27.50;23.90;;;;;;;15.88;86.95;100205.95;108984;278;38533;-73
2023/09/13 03:06:58;;;;;;;27.50;23.40;;;;;;;15.88;87.08;100207.19;108958;278;39741;-76
2023/09/13 03:09:37;;;;;;;26.90;23.20;;;;;;;15.88;87.20;100205.91;108993;278;39275;-74
2023/09/13 03:12:14;;;;;;;25.20;22.40;;;;;;;15.90;87.37;100208.27;109023;278;38330;-75
2023/09/13 03:14:52;;;;;;;26.40;23.50;;;;;;;15.91;87.19;100205.73;108929;279;38481;-76
2023/09/13 03:17:28;;;;;;;29.00;25.00;;;;;;;15.91;87.33;100200.10;108937;278;38554;-72
2023/09/13 03:20:04;;;;;;;27.30;24.40;;;;;;;15.92;87.40;100198.48;108916;278;38190;-73
2023/09/13 03:22:41;;;;;;;26.20;23.40;;;;;;;15.91;87.35;100201.52;108915;279;39344;-72
2023/09/13 03:25:16;;;;;;;25.60;22.90;;;;;;;15.88;87.35;100201.88;108887;278;38165;-73
2023/09/13 03:27:54;;;;;;;24.10;21.50;;;;;;;15.86;87.34;100203.05;108890;278;39132;-75
2023/09/13 03:30:31;;;;;;;25.60;23.00;;;;;;;15.83;87.32;100199.01;108913;278;39546;-76
2023/09/13 03:33:07;;;;;;;26.50;23.40;;;;;;;15.82;87.30;100199.99;108893;278;38186;-74
2023/09/13 03:35:41;;;;;;;26.60;23.80;;;;;;;15.80;87.43;100199.77;108879;278;38300;-74
2023/09/13 03:38:16;;;;;;;24.70;22.20;;;;;;;15.78;87.39;100193.18;108917;279;38148;-74
2023/09/13 03:40:50;;;;;;;24.40;21.90;;;;;;;15.77;87.40;100190.08;108926;279;38166;-72
2023/09/13 03:43:31;;;;;;;23.90;21.40;;;;;;;15.76;87.69;100186.78;108919;278;38157;-73
2023/09/13 03:46:10;;;;;;;25.60;23.10;;;;;;;15.77;87.88;100189.06;108963;278;38502;-75
2023/09/13 03:48:50;;;;;;;26.60;23.80;;;;;;;15.75;87.89;100189.70;109020;278;38170;-72
2023/09/13 03:55:09;;;;;;;24.80;22.10;;;;;;;15.69;87.93;100185.44;109144;275;38580;-76
2023/09/13 03:57:47;;;;;;;24.80;22.00;;;;;;;15.69;87.99;100190.42;109141;275;39445;-75
2023/09/13 04:00:24;;;;;;;26.10;23.40;;;;;;;15.69;88.24;100190.40;108957;275;38161;-72
2023/09/13 04:02:59;;;;;;;27.60;24.60;;;;;;;15.69;88.28;100188.14;108958;276;38232;-74
2023/09/13 04:05:34;;;;;;;26.40;23.30;;;;;;;15.68;88.38;100187.33;109204;275;39432;-73
2023/09/13 04:11:45;;;;;;;26.50;22.80;;;;;;;15.64;88.38;100190.35;109109;276;38677;-73
2023/09/13 04:14:20;;;;;;;25.00;22.30;;;;;;;15.67;88.35;100189.46;108948;277;39285;-72
2023/09/13 04:16:56;;;;;;;31.70;24.40;;;;;;;15.70;88.39;100188.58;109011;277;37835;-73
2023/09/13 04:19:33;;;;;;;27.60;24.70;;;;;;;15.72;88.36;100190.75;109084;277;38195;-74
2023/09/13 04:22:08;;;;;;;26.20;23.30;;;;;;;15.73;88.34;100193.13;109033;277;38304;-77
2023/09/13 04:24:42;;;;;;;26.10;23.40;;;;;;;15.74;88.33;100194.83;109044;277;38342;-75
2023/09/13 04:27:25;;;;;;;26.30;23.50;;;;;;;15.73;88.21;100189.61;108941;277;41439;-74
2023/09/13 04:30:01;;;;;;;25.50;22.80;;;;;;;15.75;88.35;100188.48;109069;277;38332;-73
2023/09/13 04:32:39;;;;;;;26.50;23.00;;;;;;;15.79;88.61;100186.80;109081;277;38165;-72
2023/09/13 04:35:23;;;;;;;27.60;24.70;;;;;;;15.82;88.55;100185.05;109082;277;38183;-72
2023/09/13 04:37:58;;;;;;;27.00;24.00;;;;;;;15.82;88.46;100182.22;109080;277;39358;-75
2023/09/13 04:40:33;;;;;;;25.20;22.60;;;;;;;15.82;88.13;100180.13;109022;277;38458;-74
2023/09/13 04:43:30;;;;;;;28.30;23.10;;;;;;;15.81;88.02;100184.54;109139;277;38354;-75
2023/09/13 04:46:06;;;;;;;27.80;24.60;;;;;;;15.83;88.55;100181.48;109009;277;38516;-74
2023/09/13 04:48:40;;;;;;;28.20;25.20;;;;;;;15.86;88.77;100181.62;108980;277;39586;-75
2023/09/13 04:51:19;;;;;;;28.50;25.20;;;;;;;15.90;89.06;100178.56;109115;277;39342;-73
2023/09/13 04:53:54;;;;;;;26.20;23.50;;;;;;;15.94;88.93;100182.32;109073;270;38403;-76
2023/09/13 04:56:28;;;;;;;29.20;23.70;;;;;;;15.99;89.07;100183.58;109039;277;38158;-73
2023/09/13 04:59:04;;;;;;;25.80;22.90;;;;;;;16.06;89.29;100184.02;109064;277;39679;-74
2023/09/13 05:01:44;;;;;;;26.80;24.10;;;;;;;16.15;89.72;100184.15;109014;277;38699;-73
2023/09/13 05:04:18;;;;;;;27.10;24.30;;;;;;;16.20;89.40;100178.35;109029;277;39374;-75
2023/09/13 05:06:53;;;;;;;26.00;23.20;;;;;;;16.26;89.75;100179.75;108945;277;38543;-75
2023/09/13 05:09:27;;;;;;;25.30;22.70;;;;;;;16.32;89.68;100177.24;108922;277;38345;-73
2023/09/13 05:12:02;;;;;;;25.40;22.80;;;;;;;16.40;90.04;100172.66;108917;277;38148;-73
2023/09/13 05:14:42;;;;;;;23.60;21.10;;;;;;;16.53;90.28;100176.77;109028;277;38280;-72
2023/09/13 05:17:17;;;;;;;27.00;23.10;;;;;;;16.65;90.59;100179.16;108944;277;39355;-72
2023/09/13 05:19:51;;;;;;;26.80;23.80;;;;;;;16.88;92.62;100181.85;109071;277;39274;-72
2023/09/13 05:22:26;;;;;;;25.90;23.00;;;;;;;17.26;92.85;100185.95;108893;277;38165;-73
2023/09/13 05:25:01;;;;;;;24.90;22.20;;;;;;;17.49;91.49;100188.05;109016;277;38701;-75
2023/09/13 05:27:40;;;;;;;29.20;23.10;;;;;;;17.65;90.54;100187.11;108989;277;38451;-75
2023/09/13 05:30:27;;;;;;;30.70;24.20;;;;;;;17.78;90.13;100184.99;109124;277;38720;-72
2023/09/13 05:33:07;;;;;;;32.60;25.60;;;;;;;17.90;89.69;100187.84;108859;277;174897;-74
2023/09/13 05:35:52;;;;;;;30.70;26.10;;;;;;;17.96;89.20;100190.08;108955;277;38466;-73
2023/09/13 05:38:30;;;;;;;31.70;25.90;;;;;;;18.05;89.02;100190.69;108935;277;38858;-73
2023/09/13 05:41:10;;;;;;;28.10;24.70;;;;;;;18.14;88.64;100187.23;108955;277;38449;-73
2023/09/13 05:43:45;;;;;;;27.40;23.80;;;;;;;18.23;88.34;100187.29;108844;277;187714;-76
2023/09/13 05:46:19;;;;;;;26.70;23.90;;;;;;;18.34;88.33;100187.88;108920;277;38538;-77
2023/09/13 05:48:55;;;;;;;26.70;23.60;;;;;;;18.44;88.32;100184.13;108927;277;38165;-73
2023/09/13 05:51:30;;;;;;;26.50;23.10;;;;;;;18.63;88.64;100187.67;108917;277;39154;-73
2023/09/13 05:54:09;;;;;;;25.40;22.80;;;;;;;19.19;92.61;100185.75;108922;277;38360;-74
2023/09/13 05:56:44;;;;;;;24.00;21.60;;;;;;;19.98;94.43;100181.34;108919;277;40100;-73
2023/09/13 05:59:20;;;;;;;23.00;20.50;;;;;;;20.81;91.90;100173.84;108913;277;39623;-73
2023/09/13 06:01:56;;;;;;;22.80;20.50;;;;;;;21.64;88.97;100171.34;108796;277;174692;-73
2023/09/13 06:04:32;;;;;;;23.60;21.40;;;;;;;22.35;84.52;100171.08;108952;277;38453;-75
2023/09/13 06:07:07;;;;;;;23.00;20.80;;;;;;;22.72;81.21;100171.86;108950;277;39564;-75
2023/09/13 06:09:42;;;;;;;24.50;21.90;;;;;;;22.97;78.05;100177.90;108976;277;38390;-77
2023/09/13 06:12:18;;;;;;;24.20;21.80;;;;;;;23.07;75.53;100176.91;108952;278;38150;-76
2023/09/13 06:14:59;;;;;;;23.30;21.00;;;;;;;23.16;73.79;100178.08;109010;278;39563;-73
2023/09/13 06:17:36;;;;;;;23.00;20.60;;;;;;;23.17;72.73;100171.16;108935;278;38187;-74
2023/09/13 06:20:14;;;;;;;22.50;20.10;;;;;;;23.05;72.20;100175.36;108954;278;38512;-74
2023/09/13 06:22:48;;;;;;;24.70;20.20;;;;;;;22.91;72.19;100183.74;108990;278;38675;-79
2023/09/13 06:25:26;;;;;;;23.60;20.30;;;;;;;22.81;72.42;100182.19;108896;278;38774;-83
2023/09/13 06:28:03;;;;;;;22.10;20.00;;;;;;;22.70;72.39;100183.36;108882;278;38296;-75
2023/09/13 06:30:39;;;;;;;22.20;19.00;;;;;;;22.59;72.36;100184.89;108195;278;891185;-73
2023/09/13 06:33:16;;;;;;;21.70;19.30;;;;;;;22.54;72.72;100189.29;108898;278;38789;-75
2023/09/13 06:35:49;;;;;;;21.00;18.70;;;;;;;22.52;73.13;100188.78;108932;278;39918;-73
2023/09/13 06:38:26;;;;;;;22.50;19.30;;;;;;;22.51;73.08;100192.91;108967;278;39939;-74
2023/09/13 06:41:01;;;;;;;23.60;19.40;;;;;;;22.53;73.36;100195.39;108942;278;38686;-74
2023/09/13 06:43:38;;;;;;;20.70;18.60;;;;;;;22.58;73.55;100191.77;108962;278;38432;-74
2023/09/13 06:46:16;;;;;;;20.30;18.20;;;;;;;22.69;73.81;100190.27;108829;278;172007;-76
2023/09/13 06:48:52;;;;;;;19.50;17.30;;;;;;;22.74;73.39;100188.14;108881;278;38446;-73
2023/09/13 06:51:33;;;;;;;20.70;18.10;;;;;;;22.79;73.13;100187.85;108943;278;38268;-75
2023/09/13 06:54:21;;;;;;;19.60;17.50;;;;;;;22.84;72.66;100189.36;108930;278;39475;-75
2023/09/13 06:57:00;;;;;;;19.20;16.70;;;;;;;22.89;71.93;100189.85;108570;279;582608;-73
2023/09/13 06:59:35;;;;;;;16.70;15.00;;;;;;;22.96;71.19;100190.06;108945;278;38244;-77
2023/09/13 07:02:11;;;;;;;17.70;15.70;;;;;;;23.06;70.97;100191.48;108957;278;38174;-74
2023/09/13 07:04:48;;;;;;;20.30;15.60;;;;;;;23.17;70.74;100191.86;108909;278;40160;-76
2023/09/13 07:07:22;;;;;;;18.60;16.70;;;;;;;23.27;70.57;100189.88;108908;278;38168;-77
2023/09/13 07:10:00;;;;;;;20.00;15.60;;;;;;;23.39;70.31;100191.16;108958;277;39844;-74
2023/09/13 07:12:39;;;;;;;17.60;15.50;;;;;;;23.50;69.49;100191.05;108958;277;40545;-74
2023/09/13 07:15:14;;;;;;;17.80;15.20;;;;;;;23.60;69.12;100191.32;108958;277;38919;-76
2023/09/13 07:17:51;;;;;;;18.30;15.60;;;;;;;23.71;68.80;100187.61;109011;277;39334;-75
2023/09/13 07:20:27;;;;;;;20.60;14.70;;;;;;;23.81;68.05;100189.73;109014;277;38273;-74
2023/09/13 07:23:03;;;;;;;21.50;15.10;;;;;;;23.89;68.20;100189.27;108951;273;39493;-81
2023/09/13 07:25:40;;;;;;;16.80;15.00;;;;;;;24.00;67.60;100186.67;108993;277;38248;-78
2023/09/13 07:28:14;;;;;;;19.30;14.90;;;;;;;24.07;66.16;100185.02;108911;277;38650;-76
2023/09/13 07:30:52;;;;;;;18.00;14.80;;;;;;;24.16;65.93;100187.05;108966;277;38271;-76
2023/09/13 07:33:31;;;;;;;19.50;15.10;;;;;;;24.24;66.03;100188.21;109005;277;39846;-74
2023/09/13 07:36:07;;;;;;;16.50;14.70;;;;;;;24.33;65.99;100190.02;108907;277;38184;-74
2023/09/13 07:38:44;;;;;;;;;;;;;;;24.43;65.95;100190.27;108936;277;38748;-75
2023/09/13 07:41:21;;;;;;;16.20;13.60;;;;;;;24.48;64.74;100191.88;108977;277;38615;-75
2023/09/13 07:44:00;;;;;;;14.70;13.10;;;;;;;24.58;64.39;100193.97;108929;277;39318;-75
2023/09/13 07:46:37;;;;;;;16.60;12.90;;;;;;;24.64;63.16;100193.71;108968;277;39938;-74
2023/09/13 07:49:16;;;;;;;15.20;13.40;;;;;;;24.72;62.34;100191.42;108879;277;38275;-74
2023/09/13 07:51:53;;;;;;;14.60;12.80;;;;;;;24.86;62.94;100195.61;108829;277;174597;-73
2023/09/13 07:54:30;;;;;;;14.70;12.80;;;;;;;25.17;64.09;100196.55;108959;277;38534;-72
2023/09/13 07:57:06;;;;;;;15.90;13.40;;;;;;;25.64;62.02;100196.03;108903;277;38754;-72
2023/09/13 07:59:42;;;;;;;15.70;12.10;;;;;;;26.40;62.24;100199.23;109011;277;38548;-72
2023/09/13 08:02:20;;;;;;;16.40;12.10;;;;;;;27.42;60.16;100196.13;109046;277;38159;-74
2023/09/13 08:04:59;;;;;;;13.20;11.70;;;;;;;28.46;56.62;100195.58;109070;277;38429;-72
2023/09/13 08:07:35;;;;;;;16.60;11.60;;;;;;;29.35;53.74;100192.95;108902;277;187436;-71
2023/09/13 08:10:12;;;;;;;15.30;11.90;;;;;;;30.35;51.60;100191.04;109043;277;38715;-74
2023/09/13 08:12:53;;;;;;;16.20;12.30;;;;;;;31.41;50.19;100186.85;108979;277;174139;-73
2023/09/13 08:15:34;;;;;;;12.90;11.50;;;;;;;32.22;46.88;100188.14;109018;277;38251;-73
2023/09/13 08:18:13;;;;;;;14.40;11.80;;;;;;;32.97;44.65;100190.39;109027;277;38179;-77
2023/09/13 08:20:50;;;;;;;12.80;10.90;;;;;;;33.56;42.22;100193.27;109038;277;38174;-77
2023/09/13 08:23:24;;;;;;;14.60;11.00;;;;;;;34.06;40.65;100197.75;109068;277;38275;-75
2023/09/13 08:26:02;;;;;;;12.70;11.00;;;;;;;34.52;39.72;100202.04;109018;277;39503;-79
2023/09/13 08:28:37;;;;;;;13.40;11.20;;;;;;;34.83;38.63;100202.98;109056;277;38658;-78
2023/09/13 08:31:13;;;;;;;13.20;11.50;;;;;;;35.06;38.22;100201.92;109039;277;38246;-78
2023/09/13 08:33:48;;;;;;;14.30;12.10;;;;;;;35.10;37.89;100206.19;108992;277;38148;-76
2023/09/13 08:36:24;;;;;;;14.90;11.50;;;;;;;34.99;37.20;100203.27;109066;277;38727;-79
2023/09/13 08:38:58;;;;;;;12.20;10.90;;;;;;;34.87;37.58;100203.80;109065;277;38863;-78
2023/09/13 08:41:33;;;;;;;14.70;11.20;;;;;;;34.86;37.04;100204.52;108978;277;38511;-77
2023/09/13 08:44:11;;;;;;;15.70;11.30;;;;;;;34.92;36.15;100201.58;109005;277;39626;-76
2023/09/13 08:46:45;;;;;;;12.70;11.00;;;;;;;35.05;36.09;100199.48;108949;277;38267;-76
2023/09/13 08:49:21;;;;;;;12.50;10.50;;;;;;;35.22;35.46;100194.11;108981;277;38468;-78
2023/09/13 08:51:57;;;;;;;18.10;11.80;;;;;;;35.49;34.82;100187.39;108935;277;39725;-78
2023/09/13 08:54:35;;;;;;;13.60;11.40;;;;;;;35.78;34.32;100188.52;109079;277;40655;-79
2023/09/13 08:57:13;;;;;;;12.30;10.90;;;;;;;35.99;33.62;100180.11;109000;277;38677;-78
2023/09/13 08:59:49;;;;;;;13.20;10.80;;;;;;;36.15;34.32;100181.08;109053;277;39332;-74
2023/09/13 09:02:24;;;;;;;11.70;10.00;;;;;;;36.29;33.70;100180.58;108983;277;38219;-76
2023/09/13 09:05:08;;;;;;;14.50;10.20;;;;;;;36.21;33.46;100177.80;108967;277;38207;-77
2023/09/13 09:07:42;;;;;;;11.60;10.30;;;;;;;36.03;33.31;100172.21;108933;277;38575;-76
2023/09/13 09:10:18;;;;;;;14.40;10.50;;;;;;;35.81;33.52;100176.97;108894;277;38745;-77
2023/09/13 09:12:55;;;;;;;13.20;11.50;;;;;;;35.51;33.57;100176.12;108963;277;38522;-76
2023/09/13 09:15:29;;;;;;;12.30;10.90;;;;;;;35.24;34.23;100175.39;108904;277;38475;-78
2023/09/13 09:18:05;;;;;;;16.20;11.10;;;;;;;35.07;34.85;100177.59;108944;277;39752;-76
2023/09/13 09:20:43;;;;;;;12.00;10.80;;;;;;;35.02;34.83;100179.98;108934;271;38473;-75
2023/09/13 09:23:24;;;;;;;13.30;11.00;;;;;;;35.05;34.18;100179.42;108970;277;39529;-77
2023/09/13 09:26:04;;;;;;;10.90;9.80;;;;;;;35.20;34.30;100175.64;108959;277;38257;-77
2023/09/13 09:28:41;;;;;;;11.80;10.40;;;;;;;35.49;33.67;100170.34;108936;277;38773;-74
2023/09/13 09:31:15;;;;;;;12.00;10.50;;;;;;;35.73;32.21;100165.75;108915;277;39335;-76
2023/09/13 09:33:49;;;;;;;11.70;10.50;;;;;;;35.98;32.54;100163.74;108942;277;39393;-74
2023/09/13 09:36:33;;;;;;;11.50;10.20;;;;;;;36.30;31.97;100164.90;109028;277;38524;-75
2023/09/13 09:39:08;;;;;;;13.40;10.30;;;;;;;36.47;31.49;100156.83;108984;277;38278;-76
2023/09/13 09:41:46;;;;;;;10.60;9.50;;;;;;;36.51;31.74;100154.59;109018;277;39701;-75
2023/09/13 09:44:22;;;;;;;11.50;10.10;;;;;;;36.43;30.91;100158.05;109027;277;38227;-76
2023/09/13 09:47:03;;;;;;;10.80;9.60;;;;;;;36.17;30.28;100151.63;108970;277;38249;-76
2023/09/13 09:49:37;;;;;;;10.30;9.30;;;;;;;35.79;30.88;100150.46;109036;277;38149;-75
2023/09/13 09:52:12;;;;;;;14.20;10.70;;;;;;;35.41;31.11;100151.32;108999;277;38303;-74
2023/09/13 09:54:52;;;;;;;11.50;10.30;;;;;;;35.00;30.44;100148.41;108984;277;38018;-75
2023/09/13 09:57:31;;;;;;;12.60;9.70;;;;;;;34.57;31.49;100150.50;108903;277;39165;-75
2023/09/13 10:00:14;;;;;;;11.00;9.80;;;;;;;34.25;31.76;100145.76;108959;277;38452;-76
2023/09/13 10:02:52;;;;;;;11.30;9.60;;;;;;;33.94;32.28;100151.45;108807;277;174224;-76
2023/09/13 10:05:26;;;;;;;10.20;9.20;;;;;;;33.65;32.41;100143.87;108969;277;38322;-77
2023/09/13 10:08:05;;;;;;;10.90;9.70;;;;;;;33.41;33.07;100144.18;108933;277;38777;-75
2023/09/13 10:10:41;;;;;;;11.90;10.10;;;;;;;33.16;33.42;100145.84;108885;277;39000;-75
2023/09/13 10:13:19;;;;;;;10.30;9.40;;;;;;;32.90;33.94;100139.59;109014;277;38237;-76
2023/09/13 10:15:57;;;;;;;11.40;9.10;;;;;;;32.73;33.85;100136.92;108917;277;39652;-78
2023/09/13 10:18:37;;;;;;;10.60;8.80;;;;;;;32.56;34.00;100135.91;108979;277;39407;-75
2023/09/13 10:21:14;;;;;;;11.70;8.90;;;;;;;32.44;34.33;100129.27;108924;277;38296;-73
2023/09/13 10:23:57;;;;;;;12.50;9.00;;;;;;;32.37;34.57;100126.34;108939;277;39372;-73
2023/09/13 10:26:33;;;;;;;9.40;8.50;;;;;;;32.29;34.32;100120.14;108975;277;38793;-74
2023/09/13 10:29:25;;;;;;;10.60;8.90;;;;;;;32.25;34.42;100118.77;108990;277;39025;-76
2023/09/13 10:32:02;;;;;;;10.20;8.70;;;;;;;32.20;34.41;100122.09;108938;277;38921;-78
2023/09/13 10:34:43;;;;;;;12.30;9.10;;;;;;;32.14;34.17;100124.44;108988;277;38174;-73
2023/09/13 10:37:39;;;;;;;11.40;9.20;;;;;;;32.02;34.55;100116.54;108879;277;38641;-74
2023/09/13 10:40:16;;;;;;;10.40;9.30;;;;;;;31.92;34.61;100121.38;108921;277;39504;-73
2023/09/13 10:42:52;;;;;;;10.80;9.60;;;;;;;31.83;34.73;100122.67;108939;277;38441;-75
2023/09/13 10:45:28;;;;;;;12.80;9.00;;;;;;;31.78;34.70;100119.56;108892;277;38605;-75
2023/09/13 10:48:05;;;;;;;10.10;9.10;;;;;;;31.70;35.07;100117.15;108889;277;38727;-76
2023/09/13 10:50:41;;;;;;;10.30;9.30;;;;;;;31.59;34.43;100122.48;108932;277;40027;-76
2023/09/13 10:53:15;;;;;;;10.30;9.30;;;;;;;31.46;34.67;100122.21;108957;277;38459;-76
2023/09/13 10:55:49;;;;;;;9.70;8.80;;;;;;;31.38;35.22;100117.13;108783;277;171602;-76
2023/09/13 10:58:25;;;;;;;9.70;8.80;;;;;;;31.24;35.91;100118.20;108926;277;39352;-74
2023/09/13 11:01:02;;;;;;;11.20;9.40;;;;;;;31.07;35.63;100116.54;108992;277;38719;-74
2023/09/13 11:03:37;;;;;;;10.30;9.30;;;;;;;30.99;35.61;100117.61;108978;277;38715;-75
2023/09/13 11:06:12;;;;;;;10.70;9.50;;;;;;;30.98;35.51;100109.56;108963;277;38305;-74
2023/09/13 11:08:49;;;;;;;11.00;9.50;;;;;;;30.98;35.63;100112.15;108953;277;38322;-75
2023/09/13 11:11:25;;;;;;;11.90;9.60;;;;;;;30.97;35.90;100112.39;108944;278;38495;-74
2023/09/13 11:14:05;;;;;;;10.60;9.10;;;;;;;30.95;35.90;100105.90;108994;277;38198;-75
2023/09/13 11:16:42;;;;;;;11.10;10.00;;;;;;;30.93;36.04;100105.02;108958;277;38306;-75
2023/09/13 11:19:17;;;;;;;10.50;9.50;;;;;;;30.94;35.88;100102.40;108958;278;39193;-73
2023/09/13 11:22:00;;;;;;;9.90;8.90;;;;;;;30.95;35.60;100104.95;108971;278;38326;-75
2023/09/13 11:24:44;;;;;;;10.00;9.10;;;;;;;30.96;35.32;100102.13;109018;278;38413;-73
2023/09/13 11:27:20;;;;;;;10.60;9.30;;;;;;;30.93;34.82;100106.83;109057;278;38490;-77
2023/09/13 11:29:56;;;;;;;10.00;9.10;;;;;;;30.84;35.29;100106.07;108927;277;38229;-76
2023/09/13 11:32:37;;;;;;;10.00;9.00;;;;;;;30.75;35.89;100106.08;108936;278;38748;-77
2023/09/13 11:35:13;;;;;;;11.60;9.30;;;;;;;30.67;35.85;100110.70;108937;277;38508;-75
2023/09/13 11:37:47;;;;;;;11.40;9.50;;;;;;;30.61;35.92;100107.14;108911;277;38325;-76
2023/09/13 11:40:24;;;;;;;10.90;9.50;;;;;;;30.57;35.75;100109.44;108940;278;39607;-74
2023/09/13 11:43:03;;;;;;;11.70;9.80;;;;;;;30.54;35.76;100109.37;108903;277;39987;-73
2023/09/13 11:45:39;;;;;;;11.90;9.90;;;;;;;30.49;36.11;100109.16;108857;277;38187;-75
2023/09/13 11:48:16;;;;;;;11.00;9.90;;;;;;;30.44;36.70;100108.45;108933;278;38936;-78
2023/09/13 11:50:55;;;;;;;10.50;9.40;;;;;;;30.37;36.68;100108.59;108933;278;38745;-76
2023/09/13 11:53:32;;;;;;;10.60;9.60;;;;;;;30.34;36.49;100111.23;108952;277;38301;-75
2023/09/13 11:56:31;;;;;;;11.60;9.90;;;;;;;30.33;36.65;100105.85;108931;278;38540;-78
2023/09/13 11:59:11;;;;;;;11.00;9.60;;;;;;;30.35;36.61;100109.23;108996;278;38206;-75
2023/09/13 12:01:53;;;;;;;10.70;9.60;;;;;;;30.33;36.50;100109.02;108999;278;39728;-76
2023/09/13 12:04:30;;;;;;;11.40;9.90;;;;;;;30.28;36.67;100106.23;108901;277;173815;-80
2023/09/13 12:07:11;;;;;;;10.00;9.00;;;;;;;30.20;37.29;100108.30;108979;277;38341;-75
2023/09/13 12:10:01;;;;;;;10.60;9.50;;;;;;;30.12;37.05;100111.31;109031;278;38258;-77